createdAt,value
2018-12-18T00:02:08.532Z,13.47
2018-12-18T00:04:36.206Z,14.17
2018-12-18T00:07:03.986Z,20.20
2018-12-18T00:09:31.720Z,16.97
2018-12-18T00:11:59.515Z,18.33
2018-12-18T00:14:27.241Z,19.00
2018-12-18T00:16:54.937Z,15.77
2018-12-18T00:19:22.669Z,16.07
2018-12-18T00:21:50.362Z,20.47
2018-12-18T00:24:18.045Z,16.97
2018-12-18T00:26:45.762Z,17.57
2018-12-18T00:29:13.500Z,15.47
2018-12-18T00:31:41.374Z,13.43
2018-12-18T00:34:09.130Z,16.83
2018-12-18T00:36:36.825Z,13.80
2018-12-18T00:39:08.659Z,13.57
2018-12-18T00:41:36.404Z,14.17
2018-12-18T00:44:04.286Z,14.73
2018-12-18T00:46:32.064Z,14.37
2018-12-18T00:48:59.761Z,12.93
2018-12-18T00:51:27.510Z,12.57
2018-12-18T00:53:55.271Z,14.83
2018-12-18T00:56:22.995Z,16.77
2018-12-18T00:58:50.731Z,15.87
2018-12-18T01:01:18.496Z,20.33
2018-12-18T01:03:52.542Z,16.67
2018-12-18T01:06:15.976Z,16.27
2018-12-18T01:08:43.716Z,17.57
2018-12-18T01:11:11.502Z,16.60
2018-12-18T01:13:39.235Z,17.83
2018-12-18T01:16:06.990Z,15.43
2018-12-18T01:18:34.967Z,17.53
2018-12-18T01:21:02.696Z,19.13
2018-12-18T01:23:30.658Z,18.47
2018-12-18T01:25:58.406Z,19.13
2018-12-18T01:28:26.245Z,16.50
2018-12-18T01:30:53.919Z,22.57
2018-12-18T01:33:21.655Z,21.87
2018-12-18T01:35:49.384Z,19.33
2018-12-18T01:38:17.153Z,15.73
2018-12-18T01:40:46.714Z,22.23
2018-12-18T01:43:18.235Z,20.67
2018-12-18T01:45:45.971Z,20.60
2018-12-18T01:48:13.710Z,21.17
2018-12-18T01:50:41.452Z,20.47
2018-12-18T01:53:09.212Z,18.33
2018-12-18T01:55:36.985Z,28.53
2018-12-18T01:58:08.929Z,26.10
2018-12-18T02:00:36.753Z,25.20
2018-12-18T02:03:04.604Z,28.97
2018-12-18T02:05:32.341Z,28.67
2018-12-18T02:08:00.159Z,32.60
2018-12-18T02:10:28.238Z,28.73
2018-12-18T02:12:56.051Z,29.83
2018-12-18T02:15:23.819Z,29.40
2018-12-18T02:17:52.525Z,32.43
2018-12-18T02:20:20.270Z,33.10
2018-12-18T02:22:48.054Z,29.47
2018-12-18T02:25:36.405Z,33.07
2018-12-18T02:28:04.203Z,27.80
2018-12-18T02:30:33.974Z,26.80
2018-12-18T02:33:01.959Z,28.37
2018-12-18T02:35:30.694Z,30.97
2018-12-18T02:37:58.458Z,24.67
2018-12-18T02:40:27.993Z,23.10
2018-12-18T02:42:57.338Z,24.63
2018-12-18T02:45:25.165Z,23.30
2018-12-18T02:47:52.893Z,23.67
2018-12-18T02:50:20.742Z,22.77
2018-12-18T02:52:48.552Z,22.07
2018-12-18T02:55:16.957Z,23.97
2018-12-18T02:57:44.711Z,23.20
2018-12-18T03:00:12.481Z,20.43
2018-12-18T03:02:40.227Z,21.70
2018-12-18T03:05:08.025Z,19.53
2018-12-18T03:07:35.784Z,18.47
2018-12-18T03:10:04.539Z,17.77
2018-12-18T03:12:32.294Z,18.60
2018-12-18T03:15:00.106Z,14.97
2018-12-18T03:17:27.826Z,17.13
2018-12-18T03:19:55.557Z,17.50
2018-12-18T03:22:23.303Z,16.27
2018-12-18T03:37:02.930Z,11.83
2018-12-18T03:39:30.659Z,13.50
2018-12-18T03:41:58.526Z,12.70
2018-12-18T03:44:26.217Z,13.10
2018-12-18T03:46:53.940Z,12.33
2018-12-18T03:49:21.657Z,15.80
2018-12-18T03:51:49.371Z,13.63
2018-12-18T03:54:17.095Z,14.17
2018-12-18T03:56:44.777Z,15.90
2018-12-18T03:59:12.519Z,12.37
2018-12-18T04:01:40.199Z,14.07
2018-12-18T04:04:07.955Z,11.07
2018-12-18T04:06:35.651Z,12.00
2018-12-18T04:09:04.555Z,11.63
2018-12-18T04:11:32.247Z,10.23
2018-12-18T04:13:59.977Z,12.07
2018-12-18T04:16:27.696Z,10.40
2018-12-18T04:18:55.360Z,12.60
2018-12-18T04:21:23.088Z,10.17
2018-12-18T04:23:50.852Z,13.47
2018-12-18T04:26:18.643Z,10.93
2018-12-18T04:28:46.345Z,12.03
2018-12-18T04:31:14.002Z,10.07
2018-12-18T04:33:41.747Z,10.17
2018-12-18T04:36:09.466Z,11.40
2018-12-18T04:38:37.186Z,10.77
2018-12-18T04:41:04.849Z,12.17
2018-12-18T04:43:32.600Z,11.53
2018-12-18T04:46:00.286Z,14.50
2018-12-18T04:48:28.033Z,14.10
2018-12-18T04:50:55.697Z,12.77
2018-12-18T04:53:23.448Z,10.97
2018-12-18T04:56:01.382Z,12.10
2018-12-18T04:58:29.057Z,12.50
2018-12-18T05:00:56.822Z,10.37
2018-12-18T05:03:36.614Z,11.90
2018-12-18T05:06:05.544Z,12.70
2018-12-18T05:08:33.250Z,13.47
2018-12-18T05:11:00.976Z,14.83
2018-12-18T05:13:28.670Z,15.63
2018-12-18T05:15:56.405Z,16.73
2018-12-18T05:18:24.102Z,15.37
2018-12-18T05:20:51.843Z,15.50
2018-12-18T05:23:19.606Z,13.23
2018-12-18T05:25:47.274Z,16.77
2018-12-18T05:28:16.240Z,17.10
2018-12-18T05:30:44.249Z,12.60
2018-12-18T05:33:11.950Z,13.10
2018-12-18T05:35:39.701Z,13.17
2018-12-18T05:38:24.218Z,15.00
2018-12-18T05:40:51.937Z,12.17
2018-12-18T05:43:20.638Z,20.00
2018-12-18T05:45:48.402Z,14.67
2018-12-18T05:48:16.149Z,14.07
2018-12-18T05:50:43.884Z,16.00
2018-12-18T05:53:11.649Z,15.93
2018-12-18T05:55:39.401Z,13.40
2018-12-18T05:58:07.190Z,13.30
2018-12-18T06:00:34.926Z,14.93
2018-12-18T06:03:02.695Z,15.87
2018-12-18T06:05:30.423Z,17.00
2018-12-18T06:07:58.175Z,18.53
2018-12-18T06:10:25.934Z,13.70
2018-12-18T06:12:53.646Z,14.73
2018-12-18T06:15:21.416Z,13.40
2018-12-18T06:17:49.926Z,9.80
2018-12-18T06:20:18.021Z,15.33
2018-12-18T06:22:45.744Z,15.07
2018-12-18T06:25:13.430Z,13.83
2018-12-18T06:27:41.164Z,16.43
2018-12-18T06:30:08.964Z,13.57
2018-12-18T06:32:36.679Z,15.87
2018-12-18T06:35:10.340Z,13.20
2018-12-18T06:37:34.370Z,13.40
2018-12-18T06:40:02.063Z,14.23
2018-12-18T06:42:29.796Z,12.80
2018-12-18T06:44:57.492Z,12.00
2018-12-18T06:47:25.158Z,13.23
2018-12-18T06:49:52.856Z,13.30
2018-12-18T06:52:20.510Z,14.80
2018-12-18T06:54:48.245Z,12.67
2018-12-18T06:57:15.894Z,13.53
2018-12-18T06:59:43.601Z,18.90
2018-12-18T07:02:11.255Z,13.57
2018-12-18T07:04:38.948Z,15.80
2018-12-18T07:07:06.621Z,12.93
2018-12-18T07:09:34.307Z,15.93
2018-12-18T07:12:02.007Z,14.30
2018-12-18T07:14:29.722Z,12.87
2018-12-18T07:16:57.407Z,12.90
2018-12-18T07:19:25.149Z,13.17
2018-12-18T07:21:52.850Z,11.30
2018-12-18T07:24:20.539Z,14.23
2018-12-18T07:26:48.242Z,13.17
2018-12-18T07:29:15.988Z,11.47
2018-12-18T07:31:43.690Z,14.47
2018-12-18T07:34:11.330Z,13.40
2018-12-18T07:36:39.070Z,12.90
2018-12-18T07:39:07.441Z,11.60
2018-12-18T07:41:35.151Z,15.70
2018-12-18T07:44:02.847Z,13.33
2018-12-18T07:46:30.541Z,10.57
2018-12-18T07:48:58.197Z,12.33
2018-12-18T07:51:25.915Z,11.73
2018-12-18T07:53:53.642Z,9.53
2018-12-18T07:56:21.302Z,8.97
2018-12-18T07:58:48.981Z,11.70
2018-12-18T08:01:16.699Z,12.00
2018-12-18T08:03:44.364Z,13.60
2018-12-18T08:06:12.075Z,10.17
2018-12-18T08:08:41.946Z,10.33
2018-12-18T08:11:09.735Z,12.80
2018-12-18T08:13:37.439Z,11.00
2018-12-18T08:16:05.096Z,15.87
2018-12-18T08:18:32.777Z,13.50
2018-12-18T08:21:00.425Z,13.13
2018-12-18T08:23:28.141Z,13.60
2018-12-18T08:25:55.847Z,13.63
2018-12-18T08:28:23.560Z,11.73
2018-12-18T08:30:51.294Z,14.77
2018-12-18T08:33:18.940Z,11.77
2018-12-18T08:35:46.635Z,10.73
2018-12-18T08:38:14.335Z,13.20
2018-12-18T08:40:42.050Z,10.33
2018-12-18T08:43:09.773Z,10.80
2018-12-18T08:45:37.452Z,12.10
2018-12-18T08:48:05.183Z,10.07
2018-12-18T08:50:32.899Z,11.13
2018-12-18T08:53:00.635Z,8.83
2018-12-18T08:55:35.756Z,8.03
2018-12-18T08:58:03.503Z,8.87
2018-12-18T09:00:31.236Z,9.43
2018-12-18T09:02:58.918Z,8.60
2018-12-18T09:05:26.642Z,10.33
2018-12-18T09:07:54.300Z,8.57
2018-12-18T09:10:22.031Z,8.37
2018-12-18T09:12:49.719Z,9.20
2018-12-18T09:15:22.995Z,10.50
2018-12-18T09:17:50.694Z,10.50
2018-12-18T09:20:18.367Z,9.57
2018-12-18T09:22:46.103Z,9.00
2018-12-18T09:25:13.753Z,8.43
2018-12-18T09:27:41.503Z,9.27
2018-12-18T09:30:09.479Z,9.47
2018-12-18T09:32:37.234Z,9.50
2018-12-18T09:35:05.566Z,8.97
2018-12-18T09:37:33.359Z,8.57
2018-12-18T09:40:01.060Z,10.70
2018-12-18T09:42:34.296Z,7.40
2018-12-18T09:45:01.963Z,8.47
2018-12-18T09:47:29.674Z,7.97
2018-12-18T09:49:57.348Z,9.30
2018-12-18T09:52:25.033Z,7.80
2018-12-18T09:54:52.824Z,8.13
2018-12-18T09:57:26.276Z,8.93
2018-12-18T09:59:53.949Z,8.43
2018-12-18T10:02:21.685Z,7.17
2018-12-18T10:04:49.404Z,6.70
2018-12-18T10:07:17.145Z,6.00
2018-12-18T10:09:44.910Z,7.83
2018-12-18T10:12:12.559Z,6.77
2018-12-18T10:14:40.218Z,7.50
2018-12-18T10:17:07.918Z,7.33
2018-12-18T10:19:35.629Z,7.43
2018-12-18T10:22:03.345Z,5.90
2018-12-18T10:24:31.055Z,7.33
2018-12-18T10:26:58.725Z,10.43
2018-12-18T10:29:26.419Z,5.63
2018-12-18T10:31:54.161Z,6.63
2018-12-18T10:34:21.951Z,5.27
2018-12-18T10:36:49.610Z,5.47
2018-12-18T10:39:17.300Z,6.27
2018-12-18T10:41:44.967Z,5.33
2018-12-18T10:44:12.699Z,4.90
2018-12-18T10:46:40.369Z,7.20
2018-12-18T10:49:08.102Z,6.67
2018-12-18T10:51:35.758Z,5.90
2018-12-18T10:54:03.483Z,5.17
2018-12-18T10:56:31.145Z,5.50
2018-12-18T10:58:58.891Z,4.53
2018-12-18T11:01:32.205Z,5.83
2018-12-18T11:03:59.951Z,5.83
2018-12-18T11:06:27.620Z,4.20
2018-12-18T11:08:55.323Z,5.90
2018-12-18T11:11:23.026Z,5.33
2018-12-18T11:13:50.677Z,5.50
2018-12-18T11:16:18.367Z,3.87
2018-12-18T11:18:46.095Z,4.77
2018-12-18T11:21:13.817Z,4.83
2018-12-18T11:23:41.564Z,5.00
2018-12-18T11:26:09.235Z,3.90
2018-12-18T11:28:36.935Z,5.90
2018-12-18T11:31:04.669Z,4.90
2018-12-18T11:33:32.413Z,5.17
2018-12-18T11:36:00.136Z,4.20
2018-12-18T11:38:27.843Z,4.87
2018-12-18T11:40:55.585Z,3.27
2018-12-18T11:43:23.319Z,4.00
2018-12-18T11:45:51.130Z,5.60
2018-12-18T11:48:18.805Z,3.53
2018-12-18T11:50:46.571Z,3.53
2018-12-18T11:53:14.474Z,3.63
2018-12-18T11:55:42.233Z,4.93
2018-12-18T11:58:09.954Z,3.27
2018-12-18T12:00:38.079Z,3.50
2018-12-18T12:03:05.860Z,3.63
2018-12-18T12:05:33.590Z,3.10
2018-12-18T12:08:01.351Z,2.63
2018-12-18T12:10:29.099Z,3.23
2018-12-18T12:12:56.855Z,3.33
2018-12-18T12:15:24.595Z,2.90
2018-12-18T12:17:52.564Z,2.43
2018-12-18T12:20:20.279Z,3.27
2018-12-18T12:22:48.027Z,2.83
2018-12-18T12:25:15.738Z,3.10
2018-12-18T12:27:49.283Z,3.73
2018-12-18T12:30:17.147Z,3.10
2018-12-18T12:32:44.855Z,2.83
2018-12-18T12:35:12.675Z,3.87
2018-12-18T12:37:40.384Z,2.50
2018-12-18T12:40:08.104Z,3.30
2018-12-18T12:42:35.822Z,3.87
2018-12-18T12:45:04.901Z,3.57
2018-12-18T12:47:41.628Z,3.73
2018-12-18T12:50:09.509Z,3.80
2018-12-18T12:52:37.198Z,3.20
2018-12-18T12:55:04.953Z,4.03
2018-12-18T12:57:32.655Z,3.30
2018-12-18T13:00:00.409Z,4.23
2018-12-18T13:02:28.139Z,4.13
2018-12-18T13:04:55.866Z,3.70
2018-12-18T13:07:23.626Z,4.17
2018-12-18T13:09:51.318Z,4.07
2018-12-18T13:12:19.018Z,3.53
2018-12-18T13:14:46.785Z,5.70
2018-12-18T13:17:14.500Z,3.90
2018-12-18T13:19:42.219Z,6.13
2018-12-18T13:22:09.951Z,5.07
2018-12-18T13:24:37.666Z,3.97
2018-12-18T13:27:05.432Z,5.40
2018-12-18T13:29:33.743Z,6.70
2018-12-18T13:32:01.786Z,5.50
2018-12-18T13:34:29.499Z,5.77
2018-12-18T13:36:57.192Z,5.53
2018-12-18T13:39:24.934Z,5.63
2018-12-18T13:41:52.615Z,5.40
2018-12-18T13:44:20.348Z,7.37
2018-12-18T13:46:48.073Z,7.60
2018-12-18T13:49:15.813Z,4.80
2018-12-18T13:51:43.502Z,6.83
2018-12-18T13:54:11.275Z,5.53
2018-12-18T13:56:38.975Z,5.27
2018-12-18T13:59:06.746Z,6.80
2018-12-18T14:01:34.497Z,8.83
2018-12-18T14:04:02.583Z,6.60
2018-12-18T14:06:30.483Z,6.57
2018-12-18T14:08:58.213Z,7.83
2018-12-18T14:11:25.943Z,7.57
2018-12-18T14:13:53.672Z,8.67
2018-12-18T14:16:21.358Z,7.43
2018-12-18T14:18:49.084Z,7.63
2018-12-18T14:21:16.761Z,8.57
2018-12-18T14:23:44.473Z,8.40
2018-12-18T14:26:12.191Z,9.00
2018-12-18T14:28:39.964Z,6.83
2018-12-18T14:31:07.773Z,7.70
2018-12-18T14:33:35.787Z,8.70
2018-12-18T14:36:03.489Z,9.27
2018-12-18T14:38:31.249Z,10.73
2018-12-18T14:40:58.929Z,10.23
2018-12-18T14:43:26.622Z,11.53
2018-12-18T14:45:54.356Z,10.07
2018-12-18T14:48:22.026Z,10.03
2018-12-18T14:50:49.786Z,10.73
2018-12-18T14:53:17.442Z,12.47
2018-12-18T14:55:45.155Z,15.03
2018-12-18T14:58:12.881Z,11.53
2018-12-18T15:00:40.656Z,13.77
2018-12-18T15:03:08.449Z,13.23
2018-12-18T15:05:36.119Z,12.77
2018-12-18T15:08:03.834Z,13.73
2018-12-18T15:10:31.534Z,13.60
2018-12-18T15:12:59.248Z,14.23
2018-12-18T15:15:27.057Z,15.03
2018-12-18T15:17:54.810Z,13.37
2018-12-18T15:20:22.536Z,17.47
2018-12-18T15:22:50.307Z,18.87
2018-12-18T15:25:18.062Z,14.03
2018-12-18T15:27:45.828Z,14.23
2018-12-18T15:30:13.623Z,16.87
2018-12-18T15:32:41.336Z,13.33
2018-12-18T15:35:09.157Z,15.47
2018-12-18T15:37:37.009Z,16.07
2018-12-18T15:40:05.369Z,17.20
2018-12-18T15:42:33.150Z,17.20
2018-12-18T15:45:00.907Z,15.53
2018-12-18T15:47:28.718Z,20.87
2018-12-18T15:49:56.502Z,18.47
2018-12-18T15:52:33.646Z,18.43
2018-12-18T15:55:01.429Z,17.57
2018-12-18T15:57:29.190Z,21.10
2018-12-18T15:59:57.029Z,24.83
2018-12-18T16:02:24.820Z,20.67
2018-12-18T16:04:52.677Z,20.60
2018-12-18T16:07:20.515Z,19.90
2018-12-18T16:09:48.309Z,21.20
2018-12-18T16:12:16.158Z,24.60
2018-12-18T16:14:43.949Z,21.20
2018-12-18T16:17:11.809Z,21.63
2018-12-18T16:19:39.747Z,22.37
2018-12-18T16:22:07.564Z,22.60
2018-12-18T16:24:35.403Z,25.97
2018-12-18T16:27:03.251Z,20.17
2018-12-18T16:29:31.149Z,27.10
2018-12-18T16:31:58.954Z,29.03
2018-12-18T16:34:26.777Z,28.37
2018-12-18T16:36:55.305Z,28.03
2018-12-18T16:39:23.140Z,26.43
2018-12-18T16:41:50.936Z,23.53
2018-12-18T16:44:18.883Z,30.50
2018-12-18T16:46:46.765Z,29.50
2018-12-18T16:49:14.571Z,21.07
2018-12-18T16:51:42.643Z,24.27
2018-12-18T16:54:10.740Z,32.77
2018-12-18T16:56:38.830Z,41.57
2018-12-18T16:59:06.700Z,36.00
2018-12-18T17:01:34.520Z,24.17
2018-12-18T17:04:02.415Z,37.37
2018-12-18T17:06:30.329Z,41.73
2018-12-18T17:08:58.128Z,44.83
2018-12-18T17:11:25.935Z,45.47
2018-12-18T17:13:53.819Z,41.77
2018-12-18T17:16:21.622Z,38.63
2018-12-18T17:18:49.521Z,43.00
2018-12-18T17:21:17.353Z,33.03
2018-12-18T17:23:45.206Z,40.10
2018-12-18T17:26:21.543Z,45.73
2018-12-18T17:28:49.384Z,42.93
2018-12-18T17:31:17.200Z,44.13
2018-12-18T17:33:45.800Z,42.17
2018-12-18T17:36:13.643Z,37.40
2018-12-18T17:38:41.486Z,43.33
2018-12-18T17:41:09.347Z,47.40
2018-12-18T17:43:38.618Z,41.70
2018-12-18T17:46:06.506Z,46.87
2018-12-18T17:48:34.380Z,43.07
2018-12-18T17:51:02.294Z,38.37
2018-12-18T17:53:30.107Z,48.00
2018-12-18T17:55:57.939Z,39.97
2018-12-18T17:58:25.813Z,44.27
2018-12-18T18:00:53.660Z,47.73
2018-12-18T18:03:21.509Z,40.80
2018-12-18T18:05:49.367Z,40.50
2018-12-18T18:08:17.763Z,45.10
2018-12-18T18:10:45.645Z,39.97
2018-12-18T18:13:13.484Z,45.60
2018-12-18T18:15:41.345Z,44.67
2018-12-18T18:18:09.154Z,39.97
2018-12-18T18:20:37.003Z,40.67
2018-12-18T18:23:04.848Z,42.70
2018-12-18T18:25:32.735Z,48.53
2018-12-18T18:28:00.517Z,48.07
2018-12-18T18:30:28.320Z,53.70
2018-12-18T18:32:56.236Z,43.07
2018-12-18T18:35:24.051Z,44.73
2018-12-18T18:37:51.903Z,41.87
2018-12-18T18:40:19.798Z,40.40
2018-12-18T18:42:48.210Z,40.43
2018-12-18T18:45:16.062Z,47.07
2018-12-18T18:47:43.938Z,40.27
2018-12-18T18:50:11.894Z,32.23
2018-12-18T18:52:39.741Z,44.60
2018-12-18T18:55:07.569Z,36.97
2018-12-18T18:57:35.409Z,39.03
2018-12-18T19:00:03.955Z,32.43
2018-12-18T19:02:31.824Z,32.77
2018-12-18T19:04:59.721Z,34.90
2018-12-18T19:07:27.585Z,39.80
2018-12-18T19:09:55.499Z,32.90
2018-12-18T19:12:23.361Z,30.57
2018-12-18T19:14:51.255Z,32.87
2018-12-18T19:17:19.171Z,30.27
2018-12-18T19:19:47.034Z,29.43
2018-12-18T19:22:14.892Z,32.67
2018-12-18T19:24:42.732Z,33.70
2018-12-18T19:27:10.631Z,36.07
2018-12-18T19:29:38.490Z,36.43
2018-12-18T19:32:06.334Z,35.87
2018-12-18T19:34:34.167Z,33.87
2018-12-18T19:37:02.152Z,38.17
2018-12-18T19:39:31.120Z,35.87
2018-12-18T19:41:59.030Z,35.30
2018-12-18T19:44:26.919Z,29.27
2018-12-18T19:46:54.829Z,31.60
2018-12-18T19:49:22.706Z,24.07
2018-12-18T19:51:50.692Z,26.20
2018-12-18T19:54:18.575Z,25.07
2018-12-18T19:56:46.504Z,26.10
2018-12-18T19:59:14.394Z,23.93
2018-12-18T20:01:42.295Z,28.20
2018-12-18T20:04:10.163Z,33.13
2018-12-18T20:06:38.107Z,29.37
2018-12-18T20:09:07.371Z,39.80
2018-12-18T20:11:35.297Z,25.80
2018-12-18T20:14:03.254Z,25.07
2018-12-18T20:16:31.179Z,27.00
2018-12-18T20:18:59.093Z,30.53
2018-12-18T20:21:27.089Z,23.57
2018-12-18T20:23:55.054Z,28.60
2018-12-18T20:26:23.168Z,22.73
2018-12-18T20:28:51.149Z,21.00
2018-12-18T20:31:19.135Z,24.67
2018-12-18T20:33:47.919Z,23.53
2018-12-18T20:36:15.750Z,25.13
2018-12-18T20:38:43.632Z,32.83
2018-12-18T20:41:11.515Z,28.30
2018-12-18T20:43:39.356Z,25.00
2018-12-18T20:46:07.204Z,24.30
2018-12-18T20:48:35.074Z,26.93
2018-12-18T20:51:02.939Z,30.40
2018-12-18T20:53:30.736Z,24.17
2018-12-18T20:55:58.607Z,26.57
2018-12-18T20:58:26.415Z,22.00
2018-12-18T21:00:54.279Z,19.63
2018-12-18T21:03:22.108Z,19.30
2018-12-18T21:05:49.985Z,20.13
2018-12-18T21:08:23.319Z,18.80
2018-12-18T21:10:47.838Z,23.37
2018-12-18T21:13:21.225Z,17.83
2018-12-18T21:15:49.095Z,20.20
2018-12-18T21:18:19.188Z,20.40
2018-12-18T21:20:47.254Z,22.17
2018-12-18T21:23:15.156Z,18.97
2018-12-18T21:25:42.992Z,19.07
2018-12-18T21:28:10.911Z,17.03
2018-12-18T21:30:38.770Z,19.00
2018-12-18T21:33:06.623Z,16.13
2018-12-18T21:35:34.475Z,19.60
2018-12-18T21:38:02.304Z,14.90
2018-12-18T21:40:30.186Z,19.07
2018-12-18T21:42:58.051Z,17.20
2018-12-18T21:45:25.856Z,14.80
2018-12-18T21:47:53.704Z,15.07
2018-12-18T21:50:21.558Z,17.90
2018-12-18T21:52:49.340Z,14.83
2018-12-18T21:55:17.183Z,17.53
2018-12-18T21:57:45.130Z,15.60
2018-12-18T22:00:13.003Z,15.27
2018-12-18T22:02:40.764Z,18.33
2018-12-18T22:05:08.554Z,21.13
2018-12-18T22:07:36.393Z,16.07
2018-12-18T22:10:05.414Z,18.47
2018-12-18T22:12:33.191Z,18.07
2018-12-18T22:15:00.899Z,17.67
2018-12-18T22:17:28.612Z,16.97
2018-12-18T22:19:56.404Z,16.93
2018-12-18T22:22:24.197Z,16.77
2018-12-18T22:24:51.953Z,17.43
2018-12-18T22:27:19.683Z,21.17
2018-12-18T22:29:47.424Z,17.20
2018-12-18T22:32:15.164Z,17.47
2018-12-18T22:34:42.905Z,18.53
2018-12-18T22:37:10.669Z,20.57
2018-12-18T22:39:38.386Z,18.47
2018-12-18T22:42:06.104Z,18.50
2018-12-18T22:44:33.922Z,19.40
2018-12-18T22:47:01.783Z,15.23
2018-12-18T22:49:29.469Z,15.60
2018-12-18T22:51:57.208Z,17.33
2018-12-18T22:54:24.887Z,16.50
2018-12-18T22:56:52.638Z,17.33
2018-12-18T22:59:20.389Z,18.17
2018-12-18T23:01:48.095Z,16.00
2018-12-18T23:04:15.852Z,12.70
2018-12-18T23:06:43.526Z,18.93
2018-12-18T23:09:14.686Z,17.50
2018-12-18T23:11:42.373Z,20.07
2018-12-18T23:14:10.160Z,16.90
2018-12-18T23:16:37.847Z,17.93
2018-12-18T23:19:05.560Z,20.40
2018-12-18T23:21:33.328Z,17.10
2018-12-18T23:24:01.077Z,15.57
2018-12-18T23:26:28.840Z,16.40
2018-12-18T23:28:56.593Z,20.27
2018-12-18T23:31:24.357Z,16.43
2018-12-18T23:33:52.068Z,17.23
2018-12-18T23:36:19.832Z,16.03
2018-12-18T23:38:47.567Z,16.97
2018-12-18T23:41:15.330Z,18.93
2018-12-18T23:43:43.068Z,31.03
2018-12-18T23:46:10.818Z,22.87
2018-12-18T23:48:39.781Z,36.73
2018-12-18T23:51:08.084Z,37.97
2018-12-18T23:53:35.834Z,31.57
2018-12-18T23:56:03.547Z,57.83
2018-12-18T23:58:31.274Z,34.77
